メインページ
METAR-TAF:

METAR-TAF

空港 :

ラ・アウロラ国際空港

グアテマラシティ, グアテマラ

緯度: 14-35N, 経度: 090-31W, 海抜: 1489m

現時点の気象観測

当レポートは26分前の19:00(UTC)に作成
の風 12kt
気温 25°C
湿度 50%
気圧 1023 hPa
視程10km以上
高度2200ftの雲は散在している
高度20000ftの雲は散在している

METAR: MGGT 181900Z 36012KT 9999 SCT022 SCT200 25/14 Q1023 A3021

時間: 13:26 (19:26 UTC)

予報

当レポートは2時間26分前の17:00(UTC)に作成
予報は18日の 18時(UTC)から 19日の 18時(UTC)まで有効
の風 12kt
視程10km以上
高度1800ftの雲は散在している
18日の 21時(UTC)から 18日の 24時(UTC)まで一時的に
南/南東の風 8kt
19日の 02時(UTC)から 19日の 04時(UTC)まで徐々に
の風 8kt
視程10km以上
1,500メートル以下は雲なし、積乱雲なし
19日の 08時(UTC)から 19日の 10時(UTC)まで徐々に
高度1400ftの千切れ雲あり
19日の 15時(UTC)から 19日の 17時(UTC)まで徐々に
高度1800ftの雲は散在している

TAF: MGGT 181700Z 1818/1918 36012KT 9999 SCT018 TX26/1820Z TN14/1912Z TEMPO 1821/1824 16008KT SCT020TUC BECMG 1902/1904 36008KT CAVOK BECMG 1908/1910 BKN014 BECMG 1915/1917 SCT018

4,000以上の空港の気象観測と天気予報(METAR報とTAF報)

利用可能な観測所は地図上に黄色い丸と赤い丸で示す。

丸の上にカーソルを重ねると観測所名を参照できる。

次にクリックすると気象観測と天気予報を参照できる。

マップの切り替え:黒色「×」印の緑ボタンをクリックして拡大、「-」印の緑ボタンをクリックして縮小、緑色の三角印をクリックして隣りの地図に切り替え


METAR-TAF: